SAZM/MDD METAR and TAF weather

Enter ICAO airport designator
Station Type Date Time Source
SAZM METAR 2022/06/27 17:00 UTC NOAA

SAZM 271700Z 34013KT CAVOK 13/06 Q1013 RMK PP///


Station Type Date Time Source
SAZM Decoded METAR 2022/06/27 17:00 UTC NOAA

Mar Del Plata Aerodrome, Argentina (SAZM) 37-56S 057-35W 21M
Jun 27, 2022 - 01:00 PM EDT / 2022.06.27 1700 UTC
Wind: from the NNW (340 degrees) at 15 MPH (13 KT):0
Visibility: greater than 7 mile(s):0
Temperature: 55 F (13 C)
Dew Point: 42 F (6 C)
Relative Humidity: 62%
Pressure (altimeter): 29.91 in. Hg (1013 hPa)
ob: SAZM 271700Z 34013KT CAVOK 13/06 Q1013 RMK PP///
cycle: 17

Station Type Date Time Source
SAZM TAF 2022/06/27 18:09 UTC NOAA

TAF SAZM 271700Z 2718/2818 32015KT CAVOK TX14/2818Z TN03/2809Z
BECMG 2804/2805 29010KT 5000 BR NSC
BECMG 2810/2812 25010KT CAVOK

Example: see airport list